sensor_id;sensor_type;location;lat;lon;timestamp;P1;durP1;ratioP1;P2;durP2;ratioP2
52768;SDS011;40471;44.534;18.644;2023-12-07T00:01:06;33.63;;;21.17;;
52768;SDS011;40471;44.534;18.644;2023-12-07T00:03:32;43.22;;;25.88;;
52768;SDS011;40471;44.534;18.644;2023-12-07T00:05:57;37.80;;;20.73;;
52768;SDS011;40471;44.534;18.644;2023-12-07T00:08:23;31.27;;;20.67;;
52768;SDS011;40471;44.534;18.644;2023-12-07T00:10:49;37.00;;;24.27;;
52768;SDS011;40471;44.534;18.644;2023-12-07T00:13:15;25.95;;;18.05;;
52768;SDS011;40471;44.534;18.644;2023-12-07T00:15:41;22.27;;;14.07;;
52768;SDS011;40471;44.534;18.644;2023-12-07T00:18:08;24.53;;;15.57;;
52768;SDS011;40471;44.534;18.644;2023-12-07T00:20:33;47.33;;;28.93;;
52768;SDS011;40471;44.534;18.644;2023-12-07T00:22:59;64.40;;;33.90;;
52768;SDS011;40471;44.534;18.644;2023-12-07T00:25:25;92.75;;;66.07;;
52768;SDS011;40471;44.534;18.644;2023-12-07T00:27:51;142.32;;;86.95;;
52768;SDS011;40471;44.534;18.644;2023-12-07T00:30:17;145.95;;;87.07;;
52768;SDS011;40471;44.534;18.644;2023-12-07T00:32:43;133.90;;;83.67;;
52768;SDS011;40471;44.534;18.644;2023-12-07T00:35:11;152.93;;;90.83;;
52768;SDS011;40471;44.534;18.644;2023-12-07T00:37:38;147.75;;;80.38;;
52768;SDS011;40471;44.534;18.644;2023-12-07T00:40:04;127.65;;;74.93;;
52768;SDS011;40471;44.534;18.644;2023-12-07T00:42:30;124.00;;;78.20;;
52768;SDS011;40471;44.534;18.644;2023-12-07T00:44:56;139.77;;;81.63;;
52768;SDS011;40471;44.534;18.644;2023-12-07T00:47:22;152.37;;;88.83;;
52768;SDS011;40471;44.534;18.644;2023-12-07T00:49:48;136.33;;;89.97;;
52768;SDS011;40471;44.534;18.644;2023-12-07T00:52:14;141.00;;;87.37;;
52768;SDS011;40471;44.534;18.644;2023-12-07T00:54:39;127.87;;;79.40;;
52768;SDS011;40471;44.534;18.644;2023-12-07T00:57:05;132.93;;;77.20;;
52768;SDS011;40471;44.534;18.644;2023-12-07T00:59:32;109.47;;;60.63;;
52768;SDS011;40471;44.534;18.644;2023-12-07T01:02:01;107.60;;;58.72;;
52768;SDS011;40471;44.534;18.644;2023-12-07T01:04:28;96.22;;;60.15;;
52768;SDS011;40471;44.534;18.644;2023-12-07T01:06:54;103.13;;;60.58;;
52768;SDS011;40471;44.534;18.644;2023-12-07T01:09:20;78.40;;;47.23;;
52768;SDS011;40471;44.534;18.644;2023-12-07T01:11:47;76.93;;;40.13;;
52768;SDS011;40471;44.534;18.644;2023-12-07T01:14:13;57.53;;;35.53;;
52768;SDS011;40471;44.534;18.644;2023-12-07T01:16:38;66.30;;;30.97;;
52768;SDS011;40471;44.534;18.644;2023-12-07T01:19:04;61.05;;;39.25;;
52768;SDS011;40471;44.534;18.644;2023-12-07T01:21:32;49.63;;;25.88;;
52768;SDS011;40471;44.534;18.644;2023-12-07T01:23:58;61.40;;;29.47;;
52768;SDS011;40471;44.534;18.644;2023-12-07T01:26:23;65.97;;;36.57;;
52768;SDS011;40471;44.534;18.644;2023-12-07T01:28:49;90.67;;;41.47;;
52768;SDS011;40471;44.534;18.644;2023-12-07T01:48:05;102.32;;;64.35;;
52768;SDS011;40471;44.534;18.644;2023-12-07T01:50:31;112.30;;;68.72;;
52768;SDS011;40471;44.534;18.644;2023-12-07T01:53:02;101.22;;;58.08;;
52768;SDS011;40471;44.534;18.644;2023-12-07T01:55:29;105.88;;;56.03;;
52768;SDS011;40471;44.534;18.644;2023-12-07T01:57:56;101.78;;;56.88;;
52768;SDS011;40471;44.534;18.644;2023-12-07T02:00:23;116.00;;;58.67;;
52768;SDS011;40471;44.534;18.644;2023-12-07T02:02:49;87.22;;;55.13;;
52768;SDS011;40471;44.534;18.644;2023-12-07T02:05:16;61.63;;;39.85;;
52768;SDS011;40471;44.534;18.644;2023-12-07T02:07:42;76.03;;;40.67;;
52768;SDS011;40471;44.534;18.644;2023-12-07T02:10:08;51.40;;;33.13;;
52768;SDS011;40471;44.534;18.644;2023-12-07T02:12:35;52.22;;;32.70;;
52768;SDS011;40471;44.534;18.644;2023-12-07T02:15:02;45.35;;;30.58;;
52768;SDS011;40471;44.534;18.644;2023-12-07T02:20:12;54.28;;;33.67;;
52768;SDS011;40471;44.534;18.644;2023-12-07T02:22:51;53.65;;;35.38;;
52768;SDS011;40471;44.534;18.644;2023-12-07T02:25:21;55.40;;;31.42;;
52768;SDS011;40471;44.534;18.644;2023-12-07T02:27:51;38.67;;;26.02;;
52768;SDS011;40471;44.534;18.644;2023-12-07T02:30:17;36.15;;;20.77;;
52768;SDS011;40471;44.534;18.644;2023-12-07T02:32:43;23.40;;;13.97;;
52768;SDS011;40471;44.534;18.644;2023-12-07T02:35:10;24.95;;;15.70;;
52768;SDS011;40471;44.534;18.644;2023-12-07T02:37:41;25.83;;;15.88;;
52768;SDS011;40471;44.534;18.644;2023-12-07T02:40:17;38.00;;;23.17;;
52768;SDS011;40471;44.534;18.644;2023-12-07T02:42:46;34.53;;;25.63;;
52768;SDS011;40471;44.534;18.644;2023-12-07T02:45:13;44.20;;;27.63;;
52768;SDS011;40471;44.534;18.644;2023-12-07T02:47:39;45.10;;;25.00;;
52768;SDS011;40471;44.534;18.644;2023-12-07T02:50:06;55.10;;;28.95;;
52768;SDS011;40471;44.534;18.644;2023-12-07T02:52:33;36.95;;;23.83;;
52768;SDS011;40471;44.534;18.644;2023-12-07T02:54:59;45.53;;;25.08;;
52768;SDS011;40471;44.534;18.644;2023-12-07T02:57:24;45.77;;;22.40;;
52768;SDS011;40471;44.534;18.644;2023-12-07T02:59:50;41.33;;;23.57;;
52768;SDS011;40471;44.534;18.644;2023-12-07T03:02:16;49.85;;;23.02;;
52768;SDS011;40471;44.534;18.644;2023-12-07T03:04:42;35.47;;;24.13;;
52768;SDS011;40471;44.534;18.644;2023-12-07T03:07:07;42.40;;;24.43;;
52768;SDS011;40471;44.534;18.644;2023-12-07T03:09:33;29.52;;;17.85;;
52768;SDS011;40471;44.534;18.644;2023-12-07T03:11:59;29.02;;;18.55;;
52768;SDS011;40471;44.534;18.644;2023-12-07T03:14:24;28.40;;;16.33;;
52768;SDS011;40471;44.534;18.644;2023-12-07T03:16:50;29.80;;;14.83;;
52768;SDS011;40471;44.534;18.644;2023-12-07T03:19:16;32.83;;;14.10;;
52768;SDS011;40471;44.534;18.644;2023-12-07T03:21:41;37.88;;;15.25;;
52768;SDS011;40471;44.534;18.644;2023-12-07T03:24:10;19.90;;;10.90;;
52768;SDS011;40471;44.534;18.644;2023-12-07T03:26:36;22.45;;;10.80;;
52768;SDS011;40471;44.534;18.644;2023-12-07T03:29:03;30.60;;;11.70;;
52768;SDS011;40471;44.534;18.644;2023-12-07T03:31:29;13.93;;;8.70;;
52768;SDS011;40471;44.534;18.644;2023-12-07T03:33:55;16.83;;;9.55;;
52768;SDS011;40471;44.534;18.644;2023-12-07T03:36:21;15.13;;;7.43;;
52768;SDS011;40471;44.534;18.644;2023-12-07T03:38:48;13.40;;;6.55;;
52768;SDS011;40471;44.534;18.644;2023-12-07T03:41:14;10.60;;;5.32;;
52768;SDS011;40471;44.534;18.644;2023-12-07T03:43:40;11.30;;;7.72;;
52768;SDS011;40471;44.534;18.644;2023-12-07T03:46:06;9.00;;;6.27;;
52768;SDS011;40471;44.534;18.644;2023-12-07T03:48:33;4.97;;;4.35;;
52768;SDS011;40471;44.534;18.644;2023-12-07T03:50:59;11.48;;;5.43;;
52768;SDS011;40471;44.534;18.644;2023-12-07T03:55:52;9.82;;;3.67;;
52768;SDS011;40471;44.534;18.644;2023-12-07T03:58:18;9.63;;;4.93;;
52768;SDS011;40471;44.534;18.644;2023-12-07T04:00:44;9.70;;;5.03;;
52768;SDS011;40471;44.534;18.644;2023-12-07T04:03:11;26.60;;;15.80;;
52768;SDS011;40471;44.534;18.644;2023-12-07T04:05:36;12.93;;;8.73;;
52768;SDS011;40471;44.534;18.644;2023-12-07T04:08:03;209.98;;;151.13;;
52768;SDS011;40471;44.534;18.644;2023-12-07T04:12:56;20.52;;;10.98;;
52768;SDS011;40471;44.534;18.644;2023-12-07T04:15:21;9.67;;;7.03;;
52768;SDS011;40471;44.534;18.644;2023-12-07T04:17:48;7.18;;;5.55;;
52768;SDS011;40471;44.534;18.644;2023-12-07T04:20:14;11.53;;;7.00;;
52768;SDS011;40471;44.534;18.644;2023-12-07T04:22:40;18.47;;;8.47;;
52768;SDS011;40471;44.534;18.644;2023-12-07T04:25:06;10.93;;;7.50;;
52768;SDS011;40471;44.534;18.644;2023-12-07T04:27:33;15.15;;;10.52;;
52768;SDS011;40471;44.534;18.644;2023-12-07T04:29:58;15.35;;;7.43;;
52768;SDS011;40471;44.534;18.644;2023-12-07T04:32:24;10.03;;;4.97;;
52768;SDS011;40471;44.534;18.644;2023-12-07T04:34:51;11.40;;;5.63;;
52768;SDS011;40471;44.534;18.644;2023-12-07T04:37:17;15.07;;;8.23;;
52768;SDS011;40471;44.534;18.644;2023-12-07T04:39:42;12.85;;;7.70;;
52768;SDS011;40471;44.534;18.644;2023-12-07T04:42:08;11.97;;;5.50;;
52768;SDS011;40471;44.534;18.644;2023-12-07T04:44:34;14.13;;;8.00;;
52768;SDS011;40471;44.534;18.644;2023-12-07T04:46:59;17.43;;;8.37;;
52768;SDS011;40471;44.534;18.644;2023-12-07T04:49:26;12.55;;;8.45;;
52768;SDS011;40471;44.534;18.644;2023-12-07T04:51:51;19.25;;;12.13;;
52768;SDS011;40471;44.534;18.644;2023-12-07T04:54:17;26.03;;;17.73;;
52768;SDS011;40471;44.534;18.644;2023-12-07T04:56:44;22.52;;;17.13;;
52768;SDS011;40471;44.534;18.644;2023-12-07T04:59:10;31.13;;;17.98;;
52768;SDS011;40471;44.534;18.644;2023-12-07T05:18:22;19.25;;;8.77;;
52768;SDS011;40471;44.534;18.644;2023-12-07T05:20:48;17.27;;;8.05;;
52768;SDS011;40471;44.534;18.644;2023-12-07T05:23:14;14.77;;;7.53;;
52768;SDS011;40471;44.534;18.644;2023-12-07T05:25:40;15.30;;;11.27;;
52768;SDS011;40471;44.534;18.644;2023-12-07T05:28:06;15.63;;;9.55;;
52768;SDS011;40471;44.534;18.644;2023-12-07T05:30:31;27.40;;;18.73;;
52768;SDS011;40471;44.534;18.644;2023-12-07T05:32:57;22.30;;;15.63;;
52768;SDS011;40471;44.534;18.644;2023-12-07T05:35:23;27.10;;;15.50;;
52768;SDS011;40471;44.534;18.644;2023-12-07T05:37:48;20.07;;;14.87;;
52768;SDS011;40471;44.534;18.644;2023-12-07T05:40:15;29.13;;;19.42;;
52768;SDS011;40471;44.534;18.644;2023-12-07T05:42:41;17.20;;;11.80;;
52768;SDS011;40471;44.534;18.644;2023-12-07T05:45:07;17.55;;;12.95;;
52768;SDS011;40471;44.534;18.644;2023-12-07T05:47:35;14.43;;;11.15;;
52768;SDS011;40471;44.534;18.644;2023-12-07T05:50:01;22.70;;;11.10;;
52768;SDS011;40471;44.534;18.644;2023-12-07T05:54:54;17.67;;;12.43;;
52768;SDS011;40471;44.534;18.644;2023-12-07T05:57:20;21.83;;;14.53;;
52768;SDS011;40471;44.534;18.644;2023-12-07T05:59:45;30.65;;;14.88;;
52768;SDS011;40471;44.534;18.644;2023-12-07T06:02:12;25.98;;;19.02;;
52768;SDS011;40471;44.534;18.644;2023-12-07T06:04:38;27.98;;;18.52;;
52768;SDS011;40471;44.534;18.644;2023-12-07T06:07:04;40.37;;;24.43;;
52768;SDS011;40471;44.534;18.644;2023-12-07T06:26:24;31.58;;;19.95;;
52768;SDS011;40471;44.534;18.644;2023-12-07T06:28:51;53.90;;;38.40;;
52768;SDS011;40471;44.534;18.644;2023-12-07T06:31:16;53.45;;;38.78;;
52768;SDS011;40471;44.534;18.644;2023-12-07T06:33:46;107.45;;;70.07;;
52768;SDS011;40471;44.534;18.644;2023-12-07T06:36:17;102.22;;;71.70;;
52768;SDS011;40471;44.534;18.644;2023-12-07T06:38:44;117.82;;;73.20;;
52768;SDS011;40471;44.534;18.644;2023-12-07T06:41:10;101.82;;;66.90;;
52768;SDS011;40471;44.534;18.644;2023-12-07T06:43:36;75.83;;;48.77;;
52768;SDS011;40471;44.534;18.644;2023-12-07T06:46:01;79.07;;;48.80;;
52768;SDS011;40471;44.534;18.644;2023-12-07T06:48:27;66.37;;;51.03;;
52768;SDS011;40471;44.534;18.644;2023-12-07T06:50:53;68.10;;;46.73;;
52768;SDS011;40471;44.534;18.644;2023-12-07T06:53:18;67.85;;;48.67;;
52768;SDS011;40471;44.534;18.644;2023-12-07T06:55:44;80.00;;;60.47;;
52768;SDS011;40471;44.534;18.644;2023-12-07T06:58:10;104.30;;;59.83;;
52768;SDS011;40471;44.534;18.644;2023-12-07T07:03:03;89.78;;;63.15;;
52768;SDS011;40471;44.534;18.644;2023-12-07T07:08:51;70.90;;;42.92;;
52768;SDS011;40471;44.534;18.644;2023-12-07T07:11:17;68.50;;;46.35;;
52768;SDS011;40471;44.534;18.644;2023-12-07T07:13:43;62.27;;;41.70;;
52768;SDS011;40471;44.534;18.644;2023-12-07T07:16:09;64.63;;;39.03;;
52768;SDS011;40471;44.534;18.644;2023-12-07T07:18:37;80.20;;;51.67;;
52768;SDS011;40471;44.534;18.644;2023-12-07T07:21:03;66.93;;;48.50;;
52768;SDS011;40471;44.534;18.644;2023-12-07T07:23:29;89.57;;;53.38;;
52768;SDS011;40471;44.534;18.644;2023-12-07T07:25:55;76.80;;;48.77;;
52768;SDS011;40471;44.534;18.644;2023-12-07T07:28:21;54.75;;;41.00;;
52768;SDS011;40471;44.534;18.644;2023-12-07T07:30:47;61.00;;;39.77;;
52768;SDS011;40471;44.534;18.644;2023-12-07T07:33:13;65.17;;;46.97;;
52768;SDS011;40471;44.534;18.644;2023-12-07T07:35:39;58.57;;;37.87;;
52768;SDS011;40471;44.534;18.644;2023-12-07T07:38:05;49.37;;;35.00;;
52768;SDS011;40471;44.534;18.644;2023-12-07T07:40:31;53.70;;;29.10;;
52768;SDS011;40471;44.534;18.644;2023-12-07T07:43:00;50.22;;;28.50;;
52768;SDS011;40471;44.534;18.644;2023-12-07T07:45:26;46.72;;;27.58;;
52768;SDS011;40471;44.534;18.644;2023-12-07T07:47:52;35.93;;;24.60;;
52768;SDS011;40471;44.534;18.644;2023-12-07T07:50:20;61.10;;;39.05;;
52768;SDS011;40471;44.534;18.644;2023-12-07T07:52:46;95.30;;;58.83;;
52768;SDS011;40471;44.534;18.644;2023-12-07T07:55:12;82.93;;;53.85;;
52768;SDS011;40471;44.534;18.644;2023-12-07T07:57:38;107.93;;;68.33;;
52768;SDS011;40471;44.534;18.644;2023-12-07T08:00:04;103.67;;;62.40;;
52768;SDS011;40471;44.534;18.644;2023-12-07T08:02:30;113.13;;;67.40;;
52768;SDS011;40471;44.534;18.644;2023-12-07T08:04:57;113.80;;;71.60;;
52768;SDS011;40471;44.534;18.644;2023-12-07T08:07:23;103.97;;;55.47;;
52768;SDS011;40471;44.534;18.644;2023-12-07T08:09:49;114.40;;;67.33;;
52768;SDS011;40471;44.534;18.644;2023-12-07T08:12:21;98.50;;;61.47;;
52768;SDS011;40471;44.534;18.644;2023-12-07T08:14:49;91.40;;;57.92;;
52768;SDS011;40471;44.534;18.644;2023-12-07T08:17:15;96.63;;;48.67;;
52768;SDS011;40471;44.534;18.644;2023-12-07T08:19:42;98.70;;;50.00;;
52768;SDS011;40471;44.534;18.644;2023-12-07T08:22:07;185.52;;;102.70;;
52768;SDS011;40471;44.534;18.644;2023-12-07T08:24:34;128.50;;;61.57;;
52768;SDS011;40471;44.534;18.644;2023-12-07T08:27:00;69.72;;;34.95;;
52768;SDS011;40471;44.534;18.644;2023-12-07T08:29:26;53.80;;;31.85;;
52768;SDS011;40471;44.534;18.644;2023-12-07T08:31:52;41.27;;;20.77;;
52768;SDS011;40471;44.534;18.644;2023-12-07T08:34:17;33.00;;;26.27;;
52768;SDS011;40471;44.534;18.644;2023-12-07T08:36:43;41.37;;;23.13;;
52768;SDS011;40471;44.534;18.644;2023-12-07T08:39:09;55.97;;;32.63;;
52768;SDS011;40471;44.534;18.644;2023-12-07T08:41:35;50.67;;;29.58;;
52768;SDS011;40471;44.534;18.644;2023-12-07T08:44:02;51.53;;;31.15;;
52768;SDS011;40471;44.534;18.644;2023-12-07T08:46:29;56.67;;;32.45;;
52768;SDS011;40471;44.534;18.644;2023-12-07T09:05:46;57.92;;;31.20;;
52768;SDS011;40471;44.534;18.644;2023-12-07T09:08:12;50.60;;;31.43;;
52768;SDS011;40471;44.534;18.644;2023-12-07T09:10:37;55.07;;;26.10;;
52768;SDS011;40471;44.534;18.644;2023-12-07T09:13:04;32.75;;;20.70;;
52768;SDS011;40471;44.534;18.644;2023-12-07T09:15:31;36.08;;;23.70;;
52768;SDS011;40471;44.534;18.644;2023-12-07T09:17:56;33.80;;;23.58;;
52768;SDS011;40471;44.534;18.644;2023-12-07T09:20:22;44.33;;;26.40;;
52768;SDS011;40471;44.534;18.644;2023-12-07T09:22:49;39.88;;;29.35;;
52768;SDS011;40471;44.534;18.644;2023-12-07T09:25:15;53.50;;;34.27;;
52768;SDS011;40471;44.534;18.644;2023-12-07T09:27:42;54.75;;;35.58;;
52768;SDS011;40471;44.534;18.644;2023-12-07T09:30:08;50.60;;;33.30;;
52768;SDS011;40471;44.534;18.644;2023-12-07T09:32:41;47.05;;;31.35;;
52768;SDS011;40471;44.534;18.644;2023-12-07T09:35:08;50.92;;;31.70;;
52768;SDS011;40471;44.534;18.644;2023-12-07T09:37:44;55.35;;;28.48;;
52768;SDS011;40471;44.534;18.644;2023-12-07T09:40:22;44.67;;;25.00;;
52768;SDS011;40471;44.534;18.644;2023-12-07T09:42:49;46.92;;;30.45;;
52768;SDS011;40471;44.534;18.644;2023-12-07T09:45:16;53.08;;;32.10;;
52768;SDS011;40471;44.534;18.644;2023-12-07T09:47:43;49.10;;;28.52;;
52768;SDS011;40471;44.534;18.644;2023-12-07T09:50:18;50.58;;;30.90;;
52768;SDS011;40471;44.534;18.644;2023-12-07T09:52:50;64.22;;;41.75;;
52768;SDS011;40471;44.534;18.644;2023-12-07T09:55:17;79.95;;;45.35;;
52768;SDS011;40471;44.534;18.644;2023-12-07T10:00:12;81.57;;;47.40;;
52768;SDS011;40471;44.534;18.644;2023-12-07T10:02:44;92.55;;;48.63;;
52768;SDS011;40471;44.534;18.644;2023-12-07T10:05:13;95.53;;;54.20;;
52768;SDS011;40471;44.534;18.644;2023-12-07T10:07:42;118.63;;;58.35;;
52768;SDS011;40471;44.534;18.644;2023-12-07T10:10:09;135.43;;;74.60;;
52768;SDS011;40471;44.534;18.644;2023-12-07T10:12:46;111.30;;;71.68;;
52768;SDS011;40471;44.534;18.644;2023-12-07T10:15:13;97.85;;;66.22;;
52768;SDS011;40471;44.534;18.644;2023-12-07T10:17:45;92.85;;;57.65;;
52768;SDS011;40471;44.534;18.644;2023-12-07T10:20:13;108.10;;;59.13;;
52768;SDS011;40471;44.534;18.644;2023-12-07T10:22:43;96.13;;;50.92;;
52768;SDS011;40471;44.534;18.644;2023-12-07T10:25:12;78.65;;;48.00;;
52768;SDS011;40471;44.534;18.644;2023-12-07T10:27:40;77.70;;;49.58;;
52768;SDS011;40471;44.534;18.644;2023-12-07T10:30:10;76.32;;;49.88;;
52768;SDS011;40471;44.534;18.644;2023-12-07T10:32:38;67.63;;;43.65;;
52768;SDS011;40471;44.534;18.644;2023-12-07T10:37:32;81.90;;;46.47;;
52768;SDS011;40471;44.534;18.644;2023-12-07T10:39:57;81.33;;;46.17;;
52768;SDS011;40471;44.534;18.644;2023-12-07T10:42:26;108.50;;;64.27;;
52768;SDS011;40471;44.534;18.644;2023-12-07T10:44:58;115.10;;;69.63;;
52768;SDS011;40471;44.534;18.644;2023-12-07T10:57:35;45.55;;;28.35;;
52768;SDS011;40471;44.534;18.644;2023-12-07T11:00:02;58.47;;;28.48;;
52768;SDS011;40471;44.534;18.644;2023-12-07T11:02:29;54.63;;;23.23;;
52768;SDS011;40471;44.534;18.644;2023-12-07T11:04:57;49.05;;;26.17;;
52768;SDS011;40471;44.534;18.644;2023-12-07T11:10:00;32.67;;;18.80;;
52768;SDS011;40471;44.534;18.644;2023-12-07T11:12:36;24.60;;;12.88;;
52768;SDS011;40471;44.534;18.644;2023-12-07T11:15:15;30.55;;;14.80;;
52768;SDS011;40471;44.534;18.644;2023-12-07T11:17:52;37.90;;;23.00;;
52768;SDS011;40471;44.534;18.644;2023-12-07T11:20:21;46.95;;;17.65;;
52768;SDS011;40471;44.534;18.644;2023-12-07T11:22:57;34.72;;;20.75;;
52768;SDS011;40471;44.534;18.644;2023-12-07T11:27:59;39.80;;;21.48;;
52768;SDS011;40471;44.534;18.644;2023-12-07T11:30:32;29.80;;;16.40;;
52768;SDS011;40471;44.534;18.644;2023-12-07T11:33:01;23.75;;;16.70;;
52768;SDS011;40471;44.534;18.644;2023-12-07T11:35:29;28.00;;;16.98;;
52768;SDS011;40471;44.534;18.644;2023-12-07T11:38:00;34.22;;;17.77;;
52768;SDS011;40471;44.534;18.644;2023-12-07T11:40:43;23.38;;;16.35;;
52768;SDS011;40471;44.534;18.644;2023-12-07T11:43:18;63.20;;;31.83;;
52768;SDS011;40471;44.534;18.644;2023-12-07T11:46:03;66.95;;;42.08;;
52768;SDS011;40471;44.534;18.644;2023-12-07T11:48:30;78.15;;;46.67;;
52768;SDS011;40471;44.534;18.644;2023-12-07T11:50:56;106.70;;;58.83;;
52768;SDS011;40471;44.534;18.644;2023-12-07T11:53:24;56.92;;;26.08;;
52768;SDS011;40471;44.534;18.644;2023-12-07T11:55:51;69.05;;;32.38;;
52768;SDS011;40471;44.534;18.644;2023-12-07T11:58:17;36.83;;;16.25;;
52768;SDS011;40471;44.534;18.644;2023-12-07T12:00:43;30.83;;;16.23;;
52768;SDS011;40471;44.534;18.644;2023-12-07T12:03:11;85.75;;;39.53;;
52768;SDS011;40471;44.534;18.644;2023-12-07T12:05:38;67.25;;;32.88;;
52768;SDS011;40471;44.534;18.644;2023-12-07T12:10:31;15.77;;;8.88;;
52768;SDS011;40471;44.534;18.644;2023-12-07T12:12:57;16.70;;;7.77;;
52768;SDS011;40471;44.534;18.644;2023-12-07T12:15:30;8.25;;;4.68;;
52768;SDS011;40471;44.534;18.644;2023-12-07T12:17:56;33.10;;;14.52;;
52768;SDS011;40471;44.534;18.644;2023-12-07T12:20:23;30.27;;;16.17;;
52768;SDS011;40471;44.534;18.644;2023-12-07T12:22:50;38.10;;;22.45;;
52768;SDS011;40471;44.534;18.644;2023-12-07T12:25:27;26.55;;;13.65;;
52768;SDS011;40471;44.534;18.644;2023-12-07T12:27:55;23.10;;;14.65;;
52768;SDS011;40471;44.534;18.644;2023-12-07T12:30:22;9.60;;;7.75;;
52768;SDS011;40471;44.534;18.644;2023-12-07T12:32:50;16.15;;;5.60;;
52768;SDS011;40471;44.534;18.644;2023-12-07T12:35:19;8.30;;;6.03;;
52768;SDS011;40471;44.534;18.644;2023-12-07T12:37:45;6.75;;;4.47;;
52768;SDS011;40471;44.534;18.644;2023-12-07T12:40:13;12.43;;;4.07;;
52768;SDS011;40471;44.534;18.644;2023-12-07T12:42:47;6.75;;;3.15;;
52768;SDS011;40471;44.534;18.644;2023-12-07T12:45:26;13.05;;;5.28;;
52768;SDS011;40471;44.534;18.644;2023-12-07T12:47:56;14.25;;;7.90;;
52768;SDS011;40471;44.534;18.644;2023-12-07T12:50:35;11.88;;;7.13;;
52768;SDS011;40471;44.534;18.644;2023-12-07T12:53:07;13.15;;;11.00;;
52768;SDS011;40471;44.534;18.644;2023-12-07T12:55:38;12.45;;;6.85;;
52768;SDS011;40471;44.534;18.644;2023-12-07T12:58:08;17.20;;;6.30;;
52768;SDS011;40471;44.534;18.644;2023-12-07T13:00:38;34.00;;;9.95;;
52768;SDS011;40471;44.534;18.644;2023-12-07T13:03:07;15.60;;;9.80;;
52768;SDS011;40471;44.534;18.644;2023-12-07T13:05:34;22.02;;;12.23;;
52768;SDS011;40471;44.534;18.644;2023-12-07T13:08:02;18.92;;;10.43;;
52768;SDS011;40471;44.534;18.644;2023-12-07T13:10:31;11.90;;;8.50;;
52768;SDS011;40471;44.534;18.644;2023-12-07T13:12:58;15.85;;;8.68;;
52768;SDS011;40471;44.534;18.644;2023-12-07T13:15:24;10.43;;;8.30;;
52768;SDS011;40471;44.534;18.644;2023-12-07T13:17:50;15.80;;;6.40;;
52768;SDS011;40471;44.534;18.644;2023-12-07T13:20:16;9.50;;;7.77;;
